Latest Weather Observations for Inverell RS

IDN60801

Issued at 6:05 pm EST Friday 25 July 2014 (issued every 30 minutes, with the page automatically refreshed every 10 minutes)

About weather observations | Map of weather stations | Latest weather observations for NSW | Other Formats
Station Details ID: 056018 Name: INVERELL RESEARCH CENTRE Lat: -29.78 Lon: 151.08 Height: 664.0 m
Data from the previous 72 hours. | See also: Recent months at Inverell RS
Date/Time
EST
Temp
°C
App
Temp
°C
Dew
Point
Rel
Hum
%
Delta-T
°C
Wind Press
QNH
hPa
Press
MSL
hPa
Rain
since 9 am
mm
Dir
 
Spd
km/h
Gust
km/h
Spd
kts
Gust
kts
25/06:00pm 16.1 13.1 5.9 50 5.1 WNW 11 13 6 7 1024.9 1025.6 0.0
25/05:30pm 15.2 12.6 5.9 54 4.6 WNW 9 9 5 5 1024.6 - 0.0
25/05:00pm 17.8 14.8 5.9 45 6.0 NNW 11 17 6 9 1024.3 - 0.0
25/04:30pm 18.9 16.0 6.4 44 6.4 N 11 13 6 7 1024.3 - 0.0
25/04:00pm 19.5 16.1 5.7 40 7.0 N 13 24 7 13 1024.1 - 0.0
25/03:30pm 19.2 15.9 6.6 44 6.5 N 13 19 7 10 1024.0 - 0.0
25/03:00pm 19.2 16.7 6.6 44 6.5 N 9 15 5 8 1024.0 1024.6 0.0
25/02:30pm 18.7 16.1 7.6 48 5.8 N 11 19 6 10 1024.2 - 0.0
25/02:00pm 19.8 16.7 7.2 44 6.6 NNW 13 20 7 11 1024.4 - 0.0
25/01:30pm 19.3 16.8 8.2 48 5.9 NNW 11 17 6 9 1024.5 - 0.0
25/01:00pm 18.8 15.4 7.5 47 5.9 N 15 24 8 13 1024.8 - 0.0
25/12:30pm 18.8 15.9 8.0 49 5.7 N 13 19 7 10 1025.2 - 0.0
25/12:00pm 18.3 15.4 8.3 52 5.3 NNW 13 24 7 13 1025.9 1026.6 0.0
25/11:30am 15.8 12.8 7.6 58 4.2 N 13 20 7 11 1026.5 - 0.0
25/11:00am 16.0 13.0 7.7 58 4.3 N 13 17 7 9 1027.0 - 0.0
25/10:30am 15.8 12.8 7.6 58 4.2 N 13 19 7 10 1027.3 - 0.0
25/10:00am 14.8 11.3 7.3 61 3.8 N 15 20 8 11 1027.3 - 0.0
25/09:30am 15.2 12.3 8.0 62 3.7 NNE 13 20 7 11 1027.3 - 0.0
25/09:00am 13.0 10.0 7.7 70 2.7 NNE 13 19 7 10 1027.3 1028.0 0.0
25/08:30am 12.5 10.3 8.0 74 2.3 N 9 11 5 6 1027.1 - 0.0
25/08:00am 9.5 8.8 6.8 83 1.3 CALM 0 6 0 3 1026.7 - 0.0
25/07:30am 9.6 7.4 6.0 78 1.7 N 7 7 4 4 1026.5 - 0.0
25/07:00am 8.1 5.8 5.5 84 1.2 N 7 9 4 5 1026.1 - 0.0
25/06:30am 8.3 5.6 5.7 84 1.2 N 9 9 5 5 1025.7 - 0.0
25/06:00am 9.0 6.3 5.8 80 1.5 N 9 11 5 6 1025.2 1025.9 0.0
25/05:30am 8.5 7.2 6.0 84 1.2 ENE 2 7 1 4 1024.8 - 0.0
25/05:00am 9.3 7.1 6.2 81 1.5 N 7 7 4 4 1024.7 - 0.0
25/04:30am 9.4 7.2 6.0 79 1.6 N 7 11 4 6 1024.5 - 0.0
25/04:00am 10.1 8.6 6.6 79 1.7 ENE 4 9 2 5 1024.2 - 0.0
25/03:30am 10.0 8.9 6.7 80 1.6 NNE 2 6 1 3 1024.3 - 0.0
25/03:00am 9.1 8.3 6.4 83 1.3 CALM 0 6 0 3 1024.3 1024.9 0.0
25/02:30am 9.0 7.8 6.3 83 1.3 ENE 2 7 1 4 1024.3 - 0.0
25/02:00am 10.2 8.7 6.7 79 1.7 ENE 4 7 2 4 1024.2 - 0.0
25/01:30am 9.9 8.7 6.4 79 1.7 E 2 7 1 4 1024.1 - 0.0
25/01:00am 9.8 7.8 6.3 79 1.7 E 6 9 3 5 1023.9 - 0.0
25/12:30am 9.4 7.3 6.0 79 1.6 E 6 7 3 4 1023.9 - 0.0
25/12:00am 9.6 8.5 5.1 73 2.1 NNE 0 0 0 0 1024.0 1024.6 0.0
 
Date/Time
EST
Temp
°C
App
Temp
°C
Dew
Point
Rel
Hum
%
Delta-T
°C
Wind Press
QNH
hPa
Press
MSL
hPa
Rain
since 9 am
mm
Dir
 
Spd
km/h
Gust
km/h
Spd
kts
Gust
kts
24/11:30pm 9.6 7.4 5.3 74 2.0 NNE 6 9 3 5 1024.0 - 0.0
24/11:00pm 9.2 6.8 4.4 72 2.2 NNE 6 7 3 4 1024.0 - 0.0
24/10:30pm 8.9 7.3 4.3 73 2.1 E 2 7 1 4 1023.9 - 0.0
24/10:00pm 9.0 6.1 4.4 73 2.1 SE 9 11 5 6 1023.6 - 0.0
24/09:30pm 9.7 7.2 4.5 70 2.4 SE 7 9 4 5 1023.3 - 0.0
24/09:00pm 9.8 7.2 4.4 69 2.5 SSE 7 9 4 5 1023.3 1024.0 0.0
24/08:30pm 9.6 7.1 4.9 72 2.2 SSE 7 9 4 5 1023.2 - 0.0
24/08:00pm 10.5 8.6 5.0 69 2.6 N 4 6 2 3 1023.0 - 0.0
24/07:30pm 10.8 9.6 4.8 66 2.8 CALM 0 0 0 0 1022.7 - 0.0
24/07:00pm 11.8 9.5 4.8 62 3.3 N 6 7 3 4 1022.5 - 0.0
24/06:30pm 12.5 10.0 4.9 60 3.6 N 7 9 4 5 1022.3 - 0.0
24/06:00pm 12.6 10.1 4.8 59 3.7 N 7 7 4 4 1022.0 1022.7 0.0
24/05:30pm 13.7 11.2 5.0 55 4.2 NNE 7 9 4 5 1021.7 - 0.0
24/05:00pm 14.8 12.7 5.7 54 4.5 N 6 11 3 6 1021.4 - 0.0
24/04:30pm 16.0 13.2 5.0 48 5.4 NNE 9 17 5 9 1021.3 - 0.0
24/04:00pm 16.5 13.3 4.9 46 5.7 NNE 11 15 6 8 1021.1 - 0.0
24/03:30pm 17.0 13.4 4.8 44 6.0 NNW 13 20 7 11 1021.0 - 0.0
24/03:00pm 17.1 13.5 5.2 45 5.9 N 13 20 7 11 1021.1 1021.7 0.0
24/02:30pm 16.9 12.1 4.9 45 5.9 N 19 28 10 15 1021.1 - 0.0
24/02:00pm 16.4 13.2 5.3 47 5.5 N 11 17 6 9 1021.3 - 0.0
24/01:30pm 16.4 12.4 5.0 47 5.6 N 15 26 8 14 1021.4 - 0.0
24/01:00pm 15.8 12.3 5.5 50 5.1 NNW 13 19 7 10 1021.7 - 0.0
24/12:30pm 14.8 10.8 5.1 52 4.7 N 15 20 8 11 1022.3 - 0.0
24/12:00pm 14.3 10.0 5.2 54 4.4 N 17 24 9 13 1022.7 1023.2 0.0
24/11:30am 14.0 10.4 5.1 55 4.3 N 13 19 7 10 1023.2 - 0.0
24/11:00am 13.1 10.4 5.4 59 3.7 NNE 9 13 5 7 1023.5 - 0.0
24/10:30am 12.7 10.3 5.4 61 3.5 NE 7 11 4 6 1024.0 - 0.0
24/10:00am 11.7 9.0 5.4 65 3.0 NE 9 15 5 8 1023.9 - 0.0
24/09:30am 11.4 9.1 5.8 68 2.7 NNE 7 11 4 6 1023.8 - 0.0
24/09:00am 10.9 8.6 5.7 70 2.5 NE 7 9 4 5 1023.2 1023.9 0.0
24/08:30am 10.3 8.9 5.4 71 2.3 ENE 2 7 1 4 1023.0 - 0.0
24/08:00am 9.9 7.5 5.2 72 2.2 ENE 7 9 4 5 1022.3 - 0.0
24/07:30am 9.2 6.8 5.4 77 1.8 E 7 11 4 6 1021.8 - 0.0
24/07:00am 8.8 6.4 5.1 77 1.7 E 7 13 4 7 1021.7 - 0.0
24/06:30am 8.6 6.4 5.4 80 1.5 NNE 6 7 3 4 1021.6 - 0.0
24/06:00am 9.0 6.6 5.1 76 1.8 N 7 9 4 5 1021.8 1022.4 0.0
24/05:30am 8.7 6.3 5.3 79 1.6 N 7 9 4 5 1021.6 - 0.0
24/05:00am 9.1 6.7 5.2 76 1.8 NE 7 9 4 5 1020.9 - 0.0
24/04:30am 8.8 7.7 5.1 77 1.7 CALM 0 0 0 0 1020.9 - 0.0
24/04:00am 8.8 6.7 5.6 80 1.5 E 6 9 3 5 1020.9 - 0.0
24/03:30am 8.7 6.3 5.3 79 1.6 E 7 9 4 5 1021.1 - 0.0
24/03:00am 8.4 6.0 5.4 81 1.4 SE 7 9 4 5 1021.3 1021.9 0.0
24/02:30am 9.0 8.0 5.6 79 1.6 CALM 0 7 0 4 1021.2 - 0.0
24/02:00am 9.0 7.2 5.4 78 1.7 E 4 7 2 4 1021.5 - 0.0
24/01:30am 9.0 6.7 4.9 75 1.9 E 6 9 3 5 1021.5 - 0.0
24/01:00am 8.8 7.3 4.9 76 1.8 ESE 2 7 1 4 1021.7 - 0.0
24/12:30am 9.0 6.8 5.1 76 1.8 E 6 7 3 4 1021.9 - 0.0
24/12:00am 9.1 6.6 5.0 75 1.9 E 7 9 4 5 1022.3 1022.9 0.0
 
Date/Time
EST
Temp
°C
App
Temp
°C
Dew
Point
Rel
Hum
%
Delta-T
°C
Wind Press
QNH
hPa
Press
MSL
hPa
Rain
since 9 am
mm
Dir
 
Spd
km/h
Gust
km/h
Spd
kts
Gust
kts
23/11:30pm 9.1 6.5 4.0 70 2.3 ESE 7 7 4 4 1022.4 - 0.0
23/11:00pm 9.0 7.3 4.2 72 2.2 ESE 2 7 1 4 1022.6 - 0.0
23/10:30pm 9.2 7.4 3.7 68 2.5 E 2 7 1 4 1022.6 - 0.0
23/10:00pm 9.2 6.1 3.7 68 2.5 E 9 11 5 6 1022.3 - 0.0
23/09:30pm 9.4 6.6 2.9 64 2.9 ESE 7 11 4 6 1022.3 - 0.0
23/09:00pm 8.8 5.4 2.1 63 2.9 SSE 9 11 5 6 1022.5 1023.1 0.0
23/08:30pm 9.0 6.0 1.8 60 3.1 SE 7 9 4 5 1022.0 - 0.0
23/08:00pm 9.4 6.3 1.2 56 3.5 SSE 7 11 4 6 1021.5 - 0.0
23/07:30pm 9.9 7.2 0.4 51 4.0 ENE 4 7 2 4 1021.5 - 0.0
23/07:00pm 11.6 8.3 0.4 46 4.8 SSW 7 9 4 5 1021.2 - 0.0
23/06:30pm 12.2 8.6 0.7 45 5.0 SW 9 11 5 6 1020.9 - 0.0
23/06:00pm 11.3 8.1 0.9 48 4.5 W 7 7 4 4 1020.8 1021.4 0.0
23/05:30pm 11.9 8.7 0.8 46 4.8 W 7 9 4 5 1020.8 - 0.0
23/05:00pm 13.7 10.8 1.4 43 5.5 WNW 6 7 3 4 1020.9 - 0.0
23/04:30pm 15.0 11.9 1.5 40 6.1 NNW 7 9 4 5 1020.6 - 0.0
23/04:00pm 15.6 12.9 0.6 36 6.7 NE 4 11 2 6 1020.4 - 0.0
23/03:30pm 14.5 11.6 1.7 42 5.8 WSW 6 7 3 4 1020.4 - 0.0
23/03:00pm 15.2 12.0 0.9 38 6.4 N 7 11 4 6 1020.0 1020.7 0.0
23/02:30pm 16.4 13.8 0.9 35 7.0 ESE 4 7 2 4 1020.3 - 0.0
23/02:00pm 15.6 12.4 0.6 36 6.7 ESE 7 13 4 7 1020.4 - 0.0
23/01:30pm 15.8 12.1 0.2 34 6.9 SSW 9 15 5 8 1020.9 - 0.0
23/01:00pm 16.0 12.5 1.5 37 6.6 W 9 13 5 7 1021.2 - 0.0
23/12:30pm 15.6 12.1 1.5 38 6.4 SE 9 13 5 7 1021.6 - 0.0
23/12:00pm 15.2 12.2 2.1 41 6.0 WSW 7 15 4 8 1022.5 1023.1 0.0
23/11:30am 15.3 12.6 2.6 42 5.9 NNE 6 11 3 6 1023.2 - 0.0
23/11:00am 14.4 11.5 2.4 44 5.5 E 7 11 4 6 1023.8 - 0.0
23/10:30am 13.9 11.0 2.5 46 5.2 E 7 11 4 6 1024.3 - 0.0
23/10:00am 12.1 9.2 2.6 52 4.3 E 7 11 4 6 1024.5 - 0.0
23/09:30am 11.1 8.1 2.3 54 3.9 ESE 7 11 4 6 1024.5 - 0.0
23/09:00am 10.3 7.5 3.2 61 3.2 ESE 7 9 4 5 1024.6 1025.3 0.0
23/08:30am 9.1 6.5 4.3 72 2.2 SSE 7 9 4 5 1024.2 - 0.0
23/08:00am 7.3 4.3 4.2 81 1.4 SE 9 9 5 5 1023.8 - 0.0
23/07:30am 6.2 3.5 3.5 83 1.2 S 7 11 4 6 1023.4 - 0.0
23/07:00am 5.5 1.7 1.9 77 1.5 S 11 15 6 8 1023.2 - 0.0
23/06:30am 3.6 0.2 1.9 89 0.7 S 9 13 5 7 1022.7 - 0.0
23/06:00am 3.7 0.4 2.2 90 0.6 SW 9 13 5 7 1022.3 1022.9 0.0
23/05:30am 4.8 1.1 2.4 84 1.0 SW 11 13 6 7 1021.9 - 0.0
23/05:00am 5.3 2.0 2.2 80 1.3 SSW 9 13 5 7 1021.6 - 0.0
23/04:30am 5.6 1.9 2.3 79 1.4 S 11 13 6 7 1021.4 - 0.0
23/04:00am 5.8 2.5 2.5 79 1.4 SSW 9 11 5 6 1021.3 - 0.0
23/03:30am 5.7 2.4 2.7 81 1.3 S 9 11 5 6 1021.5 - 0.0
23/03:00am 5.9 2.2 2.6 79 1.4 S 11 13 6 7 1021.5 1022.2 0.0
23/02:30am 6.0 2.8 3.0 81 1.3 S 9 13 5 7 1021.3 - 0.0
23/02:00am 5.9 2.7 3.1 82 1.2 S 9 11 5 6 1021.6 - 0.0
23/01:30am 6.4 3.3 3.7 83 1.2 SSE 9 11 5 6 1021.7 - 0.0
23/01:00am 6.7 3.6 3.5 80 1.4 S 9 9 5 5 1022.0 - 0.0
23/12:30am 7.3 4.2 3.7 78 1.6 SSE 9 11 5 6 1022.3 - 0.0
23/12:00am 6.9 3.8 3.5 79 1.5 SSE 9 11 5 6 1022.3 1022.9 0.0
 
Date/Time
EST
Temp
°C
App
Temp
°C
Dew
Point
Rel
Hum
%
Delta-T
°C
Wind Press
QNH
hPa
Press
MSL
hPa
Rain
since 9 am
mm
Dir
 
Spd
km/h
Gust
km/h
Spd
kts
Gust
kts
22/11:30pm 7.4 4.3 3.6 77 1.7 S 9 13 5 7 1022.5 - 0.0
22/11:00pm 7.7 4.6 3.7 76 1.8 SSE 9 13 5 7 1022.2 - 0.0
22/10:30pm 7.8 4.7 3.5 74 1.9 SE 9 11 5 6 1022.5 - 0.0
22/10:00pm 7.4 4.6 3.1 74 1.9 SE 7 9 4 5 1022.4 - 0.0
22/09:30pm 8.2 5.1 3.7 73 2.0 SE 9 13 5 7 1022.2 - 0.0
22/09:00pm 8.8 5.7 3.4 69 2.4 SE 9 13 5 7 1021.9 1022.6 0.0
22/08:30pm 10.2 6.7 3.3 62 3.1 S 11 17 6 9 1022.2 - 0.0
22/08:00pm 9.7 6.6 3.5 65 2.8 SSW 9 11 5 6 1021.9 - 0.0
22/07:30pm 9.4 6.7 3.6 67 2.6 SSW 7 15 4 8 1021.7 - 0.0
22/07:00pm 10.6 7.4 3.3 60 3.3 WSW 9 13 5 7 1021.6 - 0.0
22/06:30pm 10.4 7.2 3.3 61 3.2 WSW 9 11 5 6 1021.4 - 0.0

Other Formats:

Comma delimited format used in spreadsheet applications
http://www.bom.gov.au/fwo/IDN60801/IDN60801.94541.axf

JavaScript Object Notation format (JSON) in row-major order
http://www.bom.gov.au/fwo/IDN60801/IDN60801.94541.json